African Joseph R — D5EC9 — position and weather

sailwx.info

Track history (hours):
 
Tides and Currents Weather Stations Pressure Air Temp Water Temp Dewpoint Dewpoint Depression Visibility Wind Speed Wind Dir Waves Ship Positions

African Joseph R

Last reported at 2018-Jan-26 03:38 UTC. Time now 2018-Feb-22 05:28 UTC.
Position S 05°45' E 011°26'.
Warning: this ship's position is 27 days out of date.

Length 140 m; draft 6.7 m.

Type: Cargo ship. MMSI: 636016043.

Date/timePositionNaut miles runAvg speedWind from/ knotsBaromVisibWave heightAir tempDewpointWater temp
2018-Jan-26 03:38S 05°45' E 011°26'214.0
2018-Jan-26 03:28S 05°43' E 011°25'713.8
2018-Jan-26 02:59S 05°37' E 011°21'613.1
2018-Jan-26 02:30S 05°32' E 011°18'713.0
2018-Jan-26 02:00S 05°25' E 011°18'713.2
2018-Jan-26 01:30S 05°18' E 011°17'510.5
2018-Jan-26 01:00S 05°14' E 011°20'712.5
2018-Jan-26 00:28S 05°09' E 011°25'33 1.4
2018-Jan-25 01:01S 04°47' E 011°50'0 0.0
2018-Jan-25 00:13S 04°47' E 011°50'0 0.0
2018-Jan-24 23:58S 04°47' E 011°50'0 0.0
2018-Jan-24 23:28S 04°47' E 011°50'0 0.0
2018-Jan-24 20:10S 04°47' E 011°50'0 0.0
2018-Jan-24 19:52S 04°47' E 011°50'  
2018-Jan-20 21:28S 04°56' E 011°32'713.2
2018-Jan-20 20:55S 04°58' E 011°26'511.8
2018-Jan-20 20:28S 04°58' E 011°20'612.4
2018-Jan-20 19:58S 04°55' E 011°15'  
Track history (hours):
 
Tides and Currents Weather Stations Pressure Air Temp Water Temp Dewpoint Dewpoint Depression Visibility Wind Speed Wind Dir Waves Ship Positions

African Joseph R

Last reported at 2018-Jan-26 03:38 UTC. Time now 2018-Feb-22 05:28 UTC.
Position S 05°45' E 011°26'.
Warning: this ship's position is 27 days out of date.

Length 140 m; draft 6.7 m.

Type: Cargo ship. MMSI: 636016043.

Date/timePositionNaut miles runAvg speedWind from/ knotsBaromVisibWave heightAir tempDewpointWater temp
2018-Jan-26 03:38S 05°45' E 011°26'214.0
2018-Jan-26 03:28S 05°43' E 011°25'713.8
2018-Jan-26 02:59S 05°37' E 011°21'613.1
2018-Jan-26 02:30S 05°32' E 011°18'713.0
2018-Jan-26 02:00S 05°25' E 011°18'713.2
2018-Jan-26 01:30S 05°18' E 011°17'510.5
2018-Jan-26 01:00S 05°14' E 011°20'712.5
2018-Jan-26 00:28S 05°09' E 011°25'33 1.4
2018-Jan-25 01:01S 04°47' E 011°50'0 0.0
2018-Jan-25 00:13S 04°47' E 011°50'0 0.0
2018-Jan-24 23:58S 04°47' E 011°50'0 0.0
2018-Jan-24 23:28S 04°47' E 011°50'0 0.0
2018-Jan-24 20:10S 04°47' E 011°50'0 0.0
2018-Jan-24 19:52S 04°47' E 011°50'  
2018-Jan-20 21:28S 04°56' E 011°32'713.2
2018-Jan-20 20:55S 04°58' E 011°26'511.8
2018-Jan-20 20:28S 04°58' E 011°20'612.4
2018-Jan-20 19:58S 04°55' E 011°15'  

Dump ship's entire track history